createdAt,value
2023-02-22T00:05:51.229Z,4.60
2023-02-22T00:24:29.213Z,6.70
2023-02-22T00:43:07.343Z,9.70
2023-02-22T01:01:45.181Z,7.30
2023-02-22T01:20:21.273Z,8.20
2023-02-22T01:39:03.776Z,7.90
2023-02-22T01:57:43.571Z,7.10
2023-02-22T02:16:17.329Z,7.70
2023-02-22T02:34:56.620Z,8.00
2023-02-22T02:53:34.613Z,6.20
2023-02-22T03:12:12.964Z,6.70
2023-02-22T03:30:51.074Z,4.80
2023-02-22T03:49:31.469Z,4.90
2023-02-22T04:08:11.922Z,6.00
2023-02-22T04:26:46.703Z,7.80
2023-02-22T04:45:26.495Z,6.20
2023-02-22T05:04:05.528Z,6.50
2023-02-22T05:22:44.962Z,6.00
2023-02-22T05:41:24.248Z,4.60
2023-02-22T06:00:03.743Z,7.80
2023-02-22T06:18:42.853Z,4.10
2023-02-22T06:37:23.266Z,4.60
2023-02-22T06:56:03.259Z,6.60
2023-02-22T07:33:24.185Z,8.00
2023-02-22T07:52:05.516Z,7.00
2023-02-22T08:10:47.054Z,8.40
2023-02-22T08:29:30.306Z,6.40
2023-02-22T08:48:16.402Z,6.20
2023-02-22T09:06:55.346Z,7.80
2023-02-22T09:25:36.592Z,7.50
2023-02-22T09:44:23.845Z,6.40
2023-02-22T10:03:13.412Z,3.10
2023-02-22T10:40:48.778Z,3.50
2023-02-22T10:59:31.399Z,3.30
2023-02-22T11:18:21.076Z,2.30
2023-02-22T11:37:10.166Z,3.20
2023-02-22T11:56:03.761Z,1.20
2023-02-22T12:14:32.196Z,1.10
2023-02-22T12:51:54.817Z,1.30
2023-02-22T13:10:46.839Z,2.90
2023-02-22T13:48:11.115Z,3.10
2023-02-22T14:06:43.277Z,1.60
2023-02-22T14:25:28.375Z,2.10
2023-02-22T15:02:59.335Z,2.60
2023-02-22T15:21:45.414Z,1.30
2023-02-22T15:40:02.050Z,2.20
2023-02-22T16:17:02.930Z,5.70
2023-02-22T16:35:34.036Z,4.60
2023-02-22T16:54:10.106Z,2.30
2023-02-22T17:12:45.580Z,2.50
2023-02-22T17:31:20.867Z,3.50
2023-02-22T17:49:58.742Z,3.40
2023-02-22T18:08:35.337Z,2.50
2023-02-22T18:27:11.299Z,3.50
2023-02-22T18:45:47.865Z,3.10
2023-02-22T19:04:26.581Z,2.90
2023-02-22T19:23:06.810Z,5.50
2023-02-22T19:41:44.342Z,3.40
2023-02-22T20:00:22.346Z,5.10
2023-02-22T20:19:00.089Z,2.80
2023-02-22T20:56:15.736Z,3.50
2023-02-22T21:14:52.032Z,5.20
2023-02-22T21:33:29.433Z,4.90
2023-02-22T22:10:42.873Z,4.80
2023-02-22T22:29:24.510Z,5.80
2023-02-22T22:47:59.211Z,4.80
2023-02-22T23:06:45.441Z,5.10
2023-02-22T23:25:15.875Z,3.40
2023-02-22T23:43:57.850Z,4.20
